ADDS METAR Data INFO
IDs: Format: Raw Decoded Include TAF

Data at: 0753 UTC 24 May 2018

KPKV 240735Z AUTO 14004KT 10SM CLR 24/22 A3002 RMK AO2 T02350220
KPKV 240715Z AUTO 14004KT 10SM CLR 24/22 A3002 RMK AO2 T02390222
KPKV 240655Z AUTO 14003KT 10SM CLR 24/23 A3002 RMK AO2 T02410225
KPKV 240635Z AUTO 13004KT 10SM CLR 25/23 A3002 RMK AO2 T02450229
KPKV 240615Z AUTO 13005KT 10SM CLR 24/23 A3002 RMK AO2 T02420226
KPKV 240555Z AUTO 13005KT 10SM CLR 24/23 A3002 RMK AO2 T02420225 10268 20241 402920223
KPKV 240540Z AUTO 13004KT 10SM CLR 24/23 A3002 RMK AO2 T02410225
KPKV 240515Z AUTO 15005KT 10SM CLR 25/23 A3003 RMK AO2 T02450225
KPKV 240455Z AUTO 14004KT 10SM CLR 24/22 A3003 RMK AO2 T02430223
KPKV 240435Z AUTO 15004KT 10SM SCT020 SCT026 25/22 A3003 RMK AO2 T02460221
KPKV 240415Z AUTO 14005KT 10SM SCT020 BKN026 25/22 A3002 RMK AO2 T02510223
KPKV 240355Z AUTO 13007KT 10SM SCT020 BKN026 26/22 A3001 RMK AO2 T02550221
KPKV 240335Z AUTO 12007KT 10SM SCT022 BKN027 25/22 A3001 RMK AO2 T02530221
KPKV 240315Z AUTO 12007KT 10SM SCT020 25/22 A3000 RMK AO2 T02540220
KPKV 240255Z AUTO 12010KT 10SM SCT020 26/22 A2999 RMK AO2 T02560218
KPKV 240235Z AUTO 11010KT 10SM SCT020 SCT025 26/22 A2999 RMK AO2 T02570219
KPKV 240215Z AUTO 11010KT 10SM SCT018 SCT026 26/22 A2998 RMK AO2 T02570221
KPKV 240155Z AUTO 11013KT 10SM SCT018 BKN026 26/23 A2998 RMK AO2 T02580225
KPKV 240135Z AUTO 11013KT 10SM SCT018 SCT026 26/22 A2998 RMK AO2 T02580222
KPKV 240115Z AUTO 10011KT 10SM SCT018 SCT024 SCT029 26/22 A2998 RMK AO2 T02600224
KPKV 240055Z AUTO 10011KT 10SM SCT016 SCT024 26/23 A2997 RMK AO2 T02630225
KPKV 240035Z AUTO 12011KT 10SM CLR 27/22 A2997 RMK AO2 T02670220
KPKV 240020Z AUTO 11011KT 10SM CLR 27/22 A2996 RMK AO2 T02650219
KPKV 232355Z AUTO 10011G15KT 10SM CLR 27/22 A2997 RMK AO2 60023 T02690220 10292 20230
KPKV 232335Z AUTO 11014G18KT 10SM CLR 28/22 A2996 RMK AO2 T02790218
KPKV 232315Z AUTO 10008KT 10SM CLR 27/22 A2997 RMK AO2 T02720221
KPKV 232255Z AUTO 09008KT 10SM CLR 27/22 A2997 RMK AO2 T02710221
KPKV 232235Z AUTO 12007KT 10SM CLR 27/23 A2997 RMK AO2 T02710225
KPKV 232215Z AUTO 11008KT 10SM CLR 27/22 A2997 RMK AO2 T02700221
KPKV 232155Z AUTO 12012KT 10SM CLR 27/22 A2998 RMK AO2 T02660224
KPKV 232135Z AUTO 10011KT 10SM CLR 27/22 A2999 RMK AO2 T02680221
KPKV 232115Z AUTO 09012G15KT 10SM CLR 26/22 A2999 RMK AO2 T02560217
KPKV 232055Z AUTO 08013KT 10SM SCT019 SCT032 SCT045 26/22 A3000 RMK AO2 60023 T02600218
KPKV 232035Z AUTO 06013G22KT 10SM SCT019 BKN030 BKN035 26/22 A3001 RMK AO2 T02560216
KPKV 232015Z AUTO 11012KT 10SM SCT110 29/24 A3001 RMK AO2 T02900236
KPKV 231955Z AUTO 12012KT 10SM SCT070 BKN095 28/24 A3000 RMK AO2 T02830238
KPKV 231935Z AUTO 11012G16KT 10SM SCT070 OVC095 28/25 A3000 RMK AO2 T02840245
KPKV 231915Z AUTO 11010KT 10SM SCT031 SCT055 OVC085 27/24 A3000 RMK AO2 T02660237
KPKV 231855Z AUTO 11007KT 10SM SCT031 SCT041 OVC065 26/23 A3000 RMK AO2 P0023 T02610232
KPKV 231835Z AUTO 27005KT 7SM -RA SCT009 BKN070 OVC090 25/23 A3001 RMK AO2 P0023 T02510226
KPKV 231815Z AUTO 17016G21KT 1 1/4SM +RA SCT008 BKN014 OVC023 23/21 A3000 RMK AO2 P0019 T02300205
KPKV 231755Z AUTO 15007KT 7SM RA SCT037 BKN070 OVC085 27/22 A3001 RMK AO2 P0001 60005 T02660224 10292 20230
KPKV 231735Z AUTO 10007KT 10SM SCT060 SCT070 BKN080 28/25 A3001 RMK AO2 T02770245
KPKV 231715Z AUTO 14010KT 10SM SCT060 SCT070 SCT080 28/23 A3001 RMK AO2 T02840231
KPKV 231655Z AUTO 11007KT 10SM SCT033 SCT050 BKN110 28/24 A3001 RMK AO2 P0003 T02770241
KPKV 231635Z AUTO 12007KT 10SM SCT020 SCT047 BKN120 27/23 A3002 RMK AO2 P0003 T02670232
KPKV 231615Z AUTO 11009KT 7SM -RA SCT022 BKN039 OVC120 27/24 A3002 RMK AO2 P0003 T02730235
KPKV 231555Z AUTO 12008KT 10SM SCT021 BKN030 OVC110 29/24 A3002 RMK AO2 T02920235
KPKV 231535Z AUTO 11009KT 10SM BKN023 BKN030 OVC050 29/23 A3002 RMK AO2 T02860231
KPKV 231515Z AUTO 17005KT 10SM BKN023 BKN050 OVC090 28/23 A3002 RMK AO2 T02770231
KPKV 231500Z AUTO 18003KT 10SM SCT019 BKN070 OVC090 27/23 A3002 RMK AO2 T02650230
KPKV 231435Z AUTO 16005KT 10SM SCT016 SCT022 BKN043 28/23 A3002 RMK AO2 T02780229
KPKV 231415Z AUTO 12004KT 10SM SCT016 SCT021 BKN026 27/23 A3002 RMK AO2 T02720231
KPKV 231355Z AUTO 15007KT 10SM SCT014 27/23 A3001 RMK AO2 T02680233
KPKV 231335Z AUTO 15006KT 10SM SCT012 26/23 A3000 RMK AO2 T02640233
KPKV 231315Z AUTO 15004KT 10SM CLR 26/24 A3000 RMK AO2 T02610235
KPKV 231255Z AUTO 14003KT 10SM CLR 25/23 A2999 RMK AO2 T02530234
KPKV 231235Z AUTO 12003KT 10SM CLR 24/23 A2998 RMK AO2 T02410230
KPKV 231215Z AUTO 14003KT 10SM CLR 23/22 A2997 RMK AO2 T02340223
KPKV 231155Z AUTO 14004KT 10SM CLR 23/22 A2997 RMK AO2 T02300220 10238 20223
KPKV 231135Z AUTO 13005KT 10SM CLR 23/22 A2996 RMK AO2 T02270217
KPKV 231120Z AUTO 13004KT 10SM CLR 23/22 A2996 RMK AO2 T02260217
KPKV 231100Z AUTO 13004KT 10SM CLR 23/22 A2996 RMK AO2 T02270218
KPKV 231035Z AUTO 13004KT 10SM CLR 23/22 A2995 RMK AO2 T02250216
KPKV 231015Z AUTO 13003KT 10SM CLR 23/22 A2995 RMK AO2 T02270217
KPKV 230955Z AUTO 14003KT 10SM CLR 23/22 A2995 RMK AO2 T02300220
KPKV 230935Z AUTO 14003KT 10SM CLR 23/22 A2995 RMK AO2 T02280218
KPKV 230915Z AUTO 15004KT 10SM CLR 23/22 A2995 RMK AO2 T02300218
KPKV 230855Z AUTO 16003KT 10SM CLR 23/22 A2996 RMK AO2 T02340221
KPKV 230835Z AUTO 16003KT 10SM CLR 24/22 A2996 RMK AO2 T02350220
KPKV 230820Z AUTO 16004KT 10SM CLR 24/22 A2996 RMK AO2 T02350220
KPKV 230755Z AUTO 16003KT 10SM CLR 24/22 A2997 RMK AO2 T02370220
KPKV 230735Z AUTO 15004KT 10SM CLR 24/22 A2997 RMK AO2 T02370220
KPKV 230715Z AUTO 14004KT 10SM CLR 24/22 A2997 RMK AO2 T02360220
KPKV 230655Z AUTO 13005KT 10SM CLR 24/22 A2997 RMK AO2 T02360218
KPKV 230635Z AUTO 13005KT 10SM CLR 24/22 A2997 RMK AO2 T02370217
KPKV 230615Z AUTO 13005KT 10SM CLR 24/22 A2997 RMK AO2 T02360220
KPKV 230555Z AUTO 14004KT 10SM CLR 24/22 A2997 RMK AO2 T02360218 10280 20235 403040224
KPKV 230535Z AUTO 14004KT 10SM CLR 24/22 A2998 RMK AO2 T02370219
KPKV 230515Z AUTO 14005KT 10SM CLR 24/22 A2997 RMK AO2 T02410221
KPKV 230455Z AUTO 14004KT 10SM CLR 24/22 A2998 RMK AO2 T02400221
KPKV 230435Z AUTO 13004KT 10SM CLR 24/22 A2998 RMK AO2 T02380220
KPKV 230415Z AUTO 13005KT 10SM CLR 24/22 A2998 RMK AO2 T02370216
KPKV 230350Z AUTO 14005KT 10SM CLR 24/21 A2997 RMK AO2 T02370214
KPKV 230335Z AUTO 14005KT 10SM CLR 24/22 A2997 RMK AO2 T02370215
KPKV 230315Z AUTO 14005KT 10SM CLR 24/22 A2996 RMK AO2 T02370218
KPKV 230255Z AUTO 12004KT 10SM CLR 24/22 A2996 RMK AO2 T02380220
KPKV 230220Z AUTO 12004KT 10SM CLR 24/22 A2995 RMK AO2 T02430217
KPKV 230155Z AUTO 14004KT 10SM CLR 25/22 A2994 RMK AO2 T02450215
KPKV 230135Z AUTO 16005KT 10SM CLR 25/22 A2994 RMK AO2 T02520215
KPKV 230115Z AUTO 14007KT 10SM CLR 26/22 A2993 RMK AO2 T02600215
KPKV 230055Z AUTO 12008KT 10SM CLR 27/22 A2992 RMK AO2 T02650216
KPKV 230035Z AUTO 12010KT 10SM CLR 27/22 A2992 RMK AO2 T02720221
KPKV 230015Z AUTO 11011KT 10SM CLR 28/22 A2992 RMK AO2 T02760222
KPKV 222355Z AUTO 11011KT 10SM CLR 28/22 A2992 RMK AO2 T02800224 10304 20280
KPKV 222335Z AUTO 12012KT 10SM CLR 29/22 A2991 RMK AO2 T02850219
KPKV 222315Z AUTO 11013KT 10SM CLR 29/22 A2992 RMK AO2 T02880218
KPKV 222255Z AUTO 11012KT 10SM CLR 29/22 A2992 RMK AO2 T02900219
KPKV 222235Z AUTO 11013KT 10SM CLR 29/22 A2991 RMK AO2 T02910218
KPKV 222215Z AUTO 11013KT 10SM CLR 30/22 A2991 RMK AO2 T02950221
KPKV 222155Z AUTO 11011KT 10SM CLR 30/22 A2992 RMK AO2 T02960218
KPKV 222135Z AUTO 12013KT 10SM CLR 30/22 A2992 RMK AO2 T02960220
KPKV 222115Z AUTO 11012KT 10SM CLR 28/22 A2993 RMK AO2 T02820218
KPKV 222055Z AUTO 11011KT 10SM CLR 28/22 A2994 RMK AO2 T02800219
KPKV 222035Z AUTO 11012KT 10SM CLR 29/22 A2996 RMK AO2 T02850216
KPKV 222015Z AUTO 10012KT 10SM CLR 29/21 A2997 RMK AO2 T02900214
KPKV 222000Z AUTO 10011KT 10SM CLR 29/22 A2997 RMK AO2 T02850221